createdAt,value
2022-08-05T00:00:56.219Z,60.63
2022-08-05T00:03:45.578Z,62.29
2022-08-05T00:06:28.942Z,62.72
2022-08-05T00:09:01.315Z,63.14
2022-08-05T00:11:30.665Z,62.50
2022-08-05T00:14:12.821Z,61.94
2022-08-05T00:16:52.983Z,63.76
2022-08-05T00:19:25.038Z,60.89
2022-08-05T00:22:04.357Z,60.83
2022-08-05T00:24:33.184Z,61.63
2022-08-05T00:27:04.467Z,61.29
2022-08-05T00:29:38.964Z,60.93
2022-08-05T00:32:13.217Z,61.31
2022-08-05T00:35:03.438Z,61.58
2022-08-05T00:37:52.496Z,62.49
2022-08-05T00:40:28.425Z,61.67
2022-08-05T00:42:59.453Z,60.31
2022-08-05T00:45:38.267Z,61.45
2022-08-05T00:48:09.416Z,62.30
2022-08-05T00:50:41.406Z,62.08
2022-08-05T00:53:59.858Z,62.96
2022-08-05T00:56:05.653Z,63.19
2022-08-05T00:58:37.229Z,63.66
2022-08-05T01:01:09.073Z,64.50
2022-08-05T01:03:39.017Z,64.57
2022-08-05T01:06:11.424Z,62.68
2022-08-05T01:08:47.266Z,63.31
2022-08-05T01:11:22.248Z,66.11
2022-08-05T01:14:08.713Z,63.98
2022-08-05T01:16:49.266Z,65.89
2022-08-05T01:19:36.694Z,67.01
2022-08-05T01:22:31.800Z,66.42
2022-08-05T01:25:39.945Z,67.23
2022-08-05T01:28:30.582Z,66.77
2022-08-05T01:31:03.377Z,67.12
2022-08-05T01:33:36.517Z,67.15
2022-08-05T01:36:12.856Z,66.97
2022-08-05T01:38:42.294Z,66.61
2022-08-05T01:41:12.342Z,68.68
2022-08-05T01:43:45.064Z,67.93
2022-08-05T01:46:42.828Z,67.92
2022-08-05T01:49:23.118Z,67.90
2022-08-05T01:52:01.102Z,68.24
2022-08-05T01:54:32.989Z,66.88
2022-08-05T01:58:09.431Z,67.16
2022-08-05T01:59:54.220Z,65.44
2022-08-05T02:02:26.105Z,63.93
2022-08-05T02:04:59.785Z,64.23
2022-08-05T02:07:30.501Z,61.75
2022-08-05T02:10:00.380Z,60.09
2022-08-05T02:12:34.886Z,60.23
2022-08-05T02:15:12.205Z,54.55
2022-08-05T02:18:31.093Z,55.48
2022-08-05T02:20:49.351Z,53.72
2022-08-05T02:23:20.864Z,54.16
2022-08-05T02:25:51.172Z,54.71
2022-08-05T02:28:28.427Z,52.42
2022-08-05T02:31:04.151Z,53.65
2022-08-05T02:33:38.801Z,55.26
2022-08-05T02:36:13.579Z,54.31
2022-08-05T02:38:53.159Z,54.00
2022-08-05T02:41:28.703Z,52.61
2022-08-05T02:44:12.146Z,52.35
2022-08-05T02:46:58.387Z,53.27
2022-08-05T02:49:36.399Z,54.25
2022-08-05T02:52:09.141Z,53.44
2022-08-05T02:54:42.159Z,53.74
2022-08-05T02:58:10.618Z,56.35
2022-08-05T03:00:02.591Z,54.75
2022-08-05T03:02:36.187Z,55.76
2022-08-05T03:05:06.880Z,54.91
2022-08-05T03:07:59.413Z,53.49
2022-08-05T03:10:25.681Z,55.64
2022-08-05T03:12:55.050Z,55.24
2022-08-05T03:15:24.638Z,56.12
2022-08-05T03:17:57.637Z,55.24
2022-08-05T03:20:26.911Z,56.62
2022-08-05T03:22:57.640Z,56.49
2022-08-05T03:25:33.342Z,57.15
2022-08-05T03:28:18.510Z,57.97
2022-08-05T03:30:48.589Z,59.06
2022-08-05T03:33:19.872Z,59.09
2022-08-05T03:35:51.623Z,59.07
2022-08-05T03:38:32.644Z,58.51
2022-08-05T03:41:08.346Z,59.09
2022-08-05T03:44:08.533Z,59.24
2022-08-05T03:46:30.062Z,59.19
2022-08-05T03:49:02.764Z,59.13
2022-08-05T03:52:39.132Z,60.77
2022-08-05T03:55:34.230Z,63.16
2022-08-05T03:57:41.965Z,63.85
2022-08-05T04:00:15.920Z,63.52
2022-08-05T04:02:57.890Z,63.14
2022-08-05T04:05:33.920Z,63.26
2022-08-05T04:08:05.578Z,64.39
2022-08-05T04:10:38.167Z,63.74
2022-08-05T04:13:08.168Z,63.29
2022-08-05T04:15:37.085Z,63.76
2022-08-05T04:18:09.345Z,63.69
2022-08-05T04:20:41.147Z,64.27
2022-08-05T04:23:12.254Z,63.22
2022-08-05T04:25:57.231Z,63.68
2022-08-05T04:28:31.859Z,64.49
2022-08-05T04:31:01.642Z,65.38
2022-08-05T04:34:17.537Z,64.92
2022-08-05T04:36:44.825Z,64.85
2022-08-05T04:39:15.987Z,64.69
2022-08-05T04:41:44.935Z,64.82
2022-08-05T04:44:14.897Z,64.60
2022-08-05T04:46:49.841Z,64.36
2022-08-05T04:49:24.750Z,63.67
2022-08-05T04:52:08.466Z,63.02
2022-08-05T04:54:37.209Z,63.50
2022-08-05T04:57:06.121Z,63.92
2022-08-05T04:59:38.885Z,62.74
2022-08-05T05:02:36.463Z,62.80
2022-08-05T05:05:01.722Z,62.49
2022-08-05T05:07:35.638Z,62.67
2022-08-05T05:10:06.601Z,63.34
2022-08-05T05:12:36.834Z,63.44
2022-08-05T05:15:10.938Z,64.04
2022-08-05T05:17:57.019Z,63.94
2022-08-05T05:20:28.328Z,63.47
2022-08-05T05:22:59.147Z,62.77
2022-08-05T05:25:40.592Z,61.21
2022-08-05T05:28:10.232Z,58.56
2022-08-05T05:30:39.314Z,58.79
2022-08-05T05:33:17.213Z,58.52
2022-08-05T05:35:47.405Z,58.05
2022-08-05T05:38:22.457Z,55.61
2022-08-05T05:40:57.036Z,53.93
2022-08-05T05:43:57.524Z,52.31
2022-08-05T05:46:17.221Z,53.26
2022-08-05T05:48:48.033Z,54.63
2022-08-05T05:51:21.729Z,54.52
2022-08-05T05:53:57.865Z,53.95
2022-08-05T05:56:33.085Z,54.87
2022-08-05T05:59:05.338Z,56.27
2022-08-05T06:01:37.519Z,56.87
2022-08-05T06:04:11.986Z,55.04
2022-08-05T06:06:42.752Z,55.56
2022-08-05T06:09:17.036Z,55.09
2022-08-05T06:11:59.177Z,55.92
2022-08-05T06:14:31.271Z,56.02
2022-08-05T06:17:02.115Z,56.06
2022-08-05T06:19:56.588Z,54.32
2022-08-05T06:22:30.623Z,54.08
2022-08-05T06:25:25.165Z,53.84
2022-08-05T06:28:12.174Z,53.92
2022-08-05T06:30:44.064Z,54.49
2022-08-05T06:33:13.109Z,54.45
2022-08-05T06:36:07.183Z,54.77
2022-08-05T06:38:37.295Z,53.49
2022-08-05T06:41:08.326Z,53.80
2022-08-05T06:43:58.298Z,52.79
2022-08-05T06:46:29.765Z,52.24
2022-08-05T06:49:00.884Z,53.15
2022-08-05T06:51:31.336Z,52.30
2022-08-05T06:54:01.964Z,52.51
2022-08-05T06:56:34.838Z,52.48
2022-08-05T06:59:08.686Z,51.67
2022-08-05T07:01:40.674Z,51.03
2022-08-05T07:04:14.300Z,50.90
2022-08-05T07:06:50.455Z,50.97
2022-08-05T07:09:19.602Z,50.55
2022-08-05T07:11:51.732Z,52.32
2022-08-05T07:14:37.949Z,50.28
2022-08-05T07:17:59.534Z,49.85
2022-08-05T07:22:45.720Z,48.79
2022-08-05T07:25:54.068Z,47.97
2022-08-05T07:28:09.598Z,49.13
2022-08-05T07:30:41.582Z,47.65
2022-08-05T07:33:16.388Z,48.29
2022-08-05T07:36:04.850Z,45.54
2022-08-05T07:38:42.932Z,45.24
2022-08-05T07:42:07.027Z,45.37
2022-08-05T07:44:12.082Z,44.65
2022-08-05T07:46:48.453Z,43.83
2022-08-05T07:49:18.889Z,44.04
2022-08-05T07:51:53.290Z,43.45
2022-08-05T07:54:30.629Z,43.53
2022-08-05T07:57:17.965Z,43.31
2022-08-05T07:59:52.580Z,42.53
2022-08-05T08:02:26.685Z,43.83
2022-08-05T08:05:00.051Z,41.92
2022-08-05T08:07:29.418Z,41.54
2022-08-05T08:10:09.107Z,41.30
2022-08-05T08:12:49.440Z,41.59
2022-08-05T08:16:33.455Z,41.23
2022-08-05T08:18:14.321Z,40.27
2022-08-05T08:21:02.981Z,42.99
2022-08-05T08:24:01.768Z,39.36
2022-08-05T08:26:29.290Z,40.85
2022-08-05T08:29:21.499Z,38.02
2022-08-05T08:31:52.079Z,39.89
2022-08-05T08:34:30.196Z,39.03
2022-08-05T08:37:04.989Z,37.29
2022-08-05T08:39:37.703Z,37.48
2022-08-05T08:42:22.515Z,36.69
2022-08-05T08:45:23.303Z,36.70
2022-08-05T08:48:12.725Z,36.63
2022-08-05T08:51:03.225Z,36.15
2022-08-05T08:53:29.424Z,35.51
2022-08-05T08:56:04.776Z,34.17
2022-08-05T08:58:43.475Z,34.37
2022-08-05T09:01:18.343Z,34.22
2022-08-05T09:03:52.828Z,34.38
2022-08-05T09:06:28.559Z,33.78
2022-08-05T09:09:00.422Z,33.63
2022-08-05T09:11:51.549Z,32.33
2022-08-05T09:14:56.938Z,33.74
2022-08-05T09:17:40.199Z,33.39
2022-08-05T09:20:02.251Z,33.67
2022-08-05T09:23:18.887Z,33.88
2022-08-05T09:26:01.505Z,34.37
2022-08-05T09:28:34.238Z,34.53
2022-08-05T09:31:44.060Z,35.75
2022-08-05T09:33:56.507Z,33.69
2022-08-05T09:36:54.036Z,34.00
2022-08-05T09:39:39.453Z,32.88
2022-08-05T09:42:17.521Z,32.87
2022-08-05T09:44:56.554Z,35.58
2022-08-05T09:47:48.041Z,32.81
2022-08-05T09:50:37.753Z,32.69
2022-08-05T09:53:09.111Z,35.75
2022-08-05T09:55:56.895Z,35.19
2022-08-05T09:58:31.924Z,33.97
2022-08-05T10:01:13.388Z,31.74
2022-08-05T10:03:59.445Z,32.07
2022-08-05T10:06:28.929Z,34.53
2022-08-05T10:09:28.279Z,33.90
2022-08-05T10:12:30.576Z,33.68
2022-08-05T10:15:20.450Z,34.30
2022-08-05T10:18:09.117Z,32.55
2022-08-05T10:20:41.200Z,33.99
2022-08-05T10:23:34.431Z,35.32
2022-08-05T10:26:07.006Z,33.89
2022-08-05T10:28:36.474Z,32.43
2022-08-05T10:32:47.787Z,31.70
2022-08-05T10:33:56.836Z,31.94
2022-08-05T10:36:26.960Z,30.17
2022-08-05T10:39:01.248Z,31.54
2022-08-05T10:42:00.904Z,32.75
2022-08-05T10:44:41.951Z,32.59
2022-08-05T10:47:26.426Z,32.28
2022-08-05T10:50:32.004Z,32.72
2022-08-05T10:53:01.077Z,32.49
2022-08-05T10:55:38.525Z,31.96
2022-08-05T10:58:22.515Z,32.63
2022-08-05T11:01:08.505Z,31.30
2022-08-05T11:04:01.406Z,28.90
2022-08-05T11:06:30.742Z,29.40
2022-08-05T11:09:16.750Z,33.20
2022-08-05T11:11:53.711Z,30.60
2022-08-05T11:14:57.446Z,29.93
2022-08-05T11:17:59.134Z,29.02
2022-08-05T11:20:51.506Z,29.62
2022-08-05T11:24:04.527Z,33.35
2022-08-05T11:26:33.721Z,32.19
2022-08-05T11:29:11.817Z,31.19
2022-08-05T11:31:58.329Z,33.53
2022-08-05T11:34:51.547Z,29.05
2022-08-05T11:38:28.673Z,31.54
2022-08-05T11:41:34.592Z,31.67
2022-08-05T11:44:05.723Z,31.30
2022-08-05T11:47:10.195Z,31.18
2022-08-05T11:49:29.147Z,32.73
2022-08-05T11:52:11.191Z,29.21
2022-08-05T11:54:41.441Z,30.43
2022-08-05T11:57:25.407Z,30.31
2022-08-05T11:59:56.341Z,30.64
2022-08-05T12:02:33.046Z,30.01
2022-08-05T12:05:07.010Z,29.64
2022-08-05T12:08:10.499Z,32.37
2022-08-05T12:10:43.633Z,33.18
2022-08-05T12:13:48.422Z,31.57
2022-08-05T12:16:15.085Z,32.88
2022-08-05T12:18:49.399Z,30.85
2022-08-05T12:21:26.792Z,29.05
2022-08-05T12:24:04.840Z,29.13
2022-08-05T12:26:36.274Z,29.53
2022-08-05T12:29:09.327Z,31.53
2022-08-05T12:31:42.356Z,28.70
2022-08-05T12:34:20.569Z,28.39
2022-08-05T12:36:53.320Z,31.46
2022-08-05T12:39:23.722Z,28.50
2022-08-05T12:42:05.884Z,28.14
2022-08-05T12:44:37.723Z,28.22
2022-08-05T12:47:12.426Z,29.53
2022-08-05T12:50:05.335Z,28.97
2022-08-05T12:52:38.904Z,28.42
2022-08-05T12:55:23.774Z,29.25
2022-08-05T12:58:48.201Z,30.01
2022-08-05T13:02:02.435Z,29.05
2022-08-05T13:03:42.411Z,29.18
2022-08-05T13:06:17.707Z,28.39
2022-08-05T13:08:52.061Z,29.04
2022-08-05T13:11:59.787Z,29.22
2022-08-05T13:14:24.801Z,28.85
2022-08-05T13:17:12.014Z,26.94
2022-08-05T13:19:52.679Z,28.19
2022-08-05T13:22:29.548Z,27.78
2022-08-05T13:25:05.522Z,28.52
2022-08-05T13:27:38.562Z,29.04
2022-08-05T13:30:34.659Z,28.83
2022-08-05T13:33:01.598Z,27.10
2022-08-05T13:35:47.138Z,27.63
2022-08-05T13:38:31.153Z,28.63
2022-08-05T13:41:06.871Z,28.54
2022-08-05T13:43:45.652Z,28.78
2022-08-05T13:46:37.702Z,28.04
2022-08-05T13:49:12.777Z,28.55
2022-08-05T13:51:46.343Z,29.02
2022-08-05T13:54:17.159Z,27.81
2022-08-05T13:56:51.987Z,29.29
2022-08-05T13:59:24.157Z,28.24
2022-08-05T14:01:58.414Z,27.98
2022-08-05T14:04:49.574Z,29.37
2022-08-05T14:07:56.527Z,28.56
2022-08-05T14:10:11.806Z,28.93
2022-08-05T14:12:48.433Z,29.43
2022-08-05T14:16:07.404Z,30.91
2022-08-05T14:18:15.054Z,29.28
2022-08-05T14:20:48.248Z,29.59
2022-08-05T14:23:25.177Z,30.83
2022-08-05T14:25:58.063Z,31.94
2022-08-05T14:28:30.415Z,31.03
2022-08-05T14:31:00.746Z,30.76
2022-08-05T14:33:57.021Z,30.44
2022-08-05T14:36:21.328Z,30.82
2022-08-05T14:38:50.979Z,31.20
2022-08-05T14:41:19.879Z,31.63
2022-08-05T14:44:01.473Z,31.67
2022-08-05T14:46:35.383Z,32.09
2022-08-05T14:49:07.536Z,32.26
2022-08-05T14:51:38.082Z,32.88
2022-08-05T14:54:28.002Z,32.95
2022-08-05T14:56:57.448Z,32.53
2022-08-05T14:59:29.153Z,33.55
2022-08-05T15:01:58.841Z,33.61
2022-08-05T15:04:29.012Z,33.47
2022-08-05T15:06:58.900Z,34.10
2022-08-05T15:09:51.411Z,34.18
2022-08-05T15:12:17.225Z,34.51
2022-08-05T15:14:49.967Z,35.29
2022-08-05T15:17:45.896Z,35.96
2022-08-05T15:20:19.103Z,36.27
2022-08-05T15:22:54.249Z,36.54
2022-08-05T15:25:50.910Z,37.21
2022-08-05T15:28:14.768Z,36.93
2022-08-05T15:30:46.771Z,38.20
2022-08-05T15:34:04.588Z,38.55
2022-08-05T15:36:17.773Z,39.37
2022-08-05T15:41:00.920Z,39.68
2022-08-05T15:41:57.267Z,41.62
2022-08-05T15:44:30.031Z,42.23
2022-08-05T15:47:03.627Z,42.04
2022-08-05T15:49:52.103Z,42.97
2022-08-05T15:52:29.196Z,43.19
2022-08-05T15:54:58.736Z,43.04
2022-08-05T15:57:27.864Z,43.28
2022-08-05T16:00:03.790Z,42.71
2022-08-05T16:02:34.279Z,42.99
2022-08-05T16:05:03.346Z,42.90
2022-08-05T16:07:34.438Z,43.06
2022-08-05T16:10:04.495Z,43.80
2022-08-05T16:12:38.427Z,42.93
2022-08-05T16:15:07.774Z,43.52
2022-08-05T16:17:39.722Z,43.13
2022-08-05T16:20:11.153Z,42.77
2022-08-05T16:22:40.734Z,42.83
2022-08-05T16:25:10.790Z,43.06
2022-08-05T16:28:00.293Z,43.31
2022-08-05T16:30:29.363Z,43.23
2022-08-05T16:33:00.349Z,42.88
2022-08-05T16:35:32.159Z,42.61
2022-08-05T16:38:24.700Z,42.70
2022-08-05T16:40:59.708Z,43.28
2022-08-05T16:43:31.209Z,43.33
2022-08-05T16:46:06.860Z,43.53
2022-08-05T16:48:43.098Z,44.18
2022-08-05T16:51:12.229Z,43.84
2022-08-05T16:54:05.211Z,43.80
2022-08-05T16:56:33.610Z,44.09
2022-08-05T16:59:08.036Z,44.21
2022-08-05T17:01:54.391Z,44.57
2022-08-05T17:04:27.843Z,44.44
2022-08-05T17:07:00.901Z,44.97
2022-08-05T17:09:38.974Z,44.36
2022-08-05T17:12:22.549Z,44.11
2022-08-05T17:15:09.391Z,44.64
2022-08-05T17:17:41.963Z,44.51
2022-08-05T17:20:14.785Z,44.65
2022-08-05T17:22:45.409Z,44.48
2022-08-05T17:25:33.720Z,43.94
2022-08-05T17:28:09.193Z,44.17
2022-08-05T17:30:50.221Z,44.78
2022-08-05T17:33:20.201Z,44.96
2022-08-05T17:36:09.013Z,44.70
2022-08-05T17:38:39.853Z,45.37
2022-08-05T17:41:22.813Z,45.10
2022-08-05T17:43:59.559Z,45.14
2022-08-05T17:46:28.273Z,45.11
2022-08-05T17:48:57.037Z,45.03
2022-08-05T17:51:28.196Z,45.48
2022-08-05T17:54:09.298Z,45.20
2022-08-05T17:56:38.608Z,45.16
2022-08-05T17:59:07.370Z,45.41
2022-08-05T18:01:42.702Z,45.41
2022-08-05T18:04:21.337Z,45.63
2022-08-05T18:07:00.318Z,45.86
2022-08-05T18:10:00.161Z,46.19
2022-08-05T18:12:24.042Z,46.56
2022-08-05T18:14:53.393Z,46.96
2022-08-05T18:17:58.740Z,47.00
2022-08-05T18:20:14.069Z,47.70
2022-08-05T18:22:53.932Z,47.62
2022-08-05T18:25:24.019Z,48.75
2022-08-05T18:27:53.989Z,48.33
2022-08-05T18:30:22.689Z,48.72
2022-08-05T18:33:00.474Z,50.37
2022-08-05T18:36:01.126Z,50.22
2022-08-05T18:38:26.005Z,51.26
2022-08-05T18:41:54.088Z,51.89
2022-08-05T18:43:49.047Z,51.99
2022-08-05T18:46:19.924Z,53.35
2022-08-05T18:48:51.903Z,53.34
2022-08-05T18:52:05.294Z,53.30
2022-08-05T18:54:31.711Z,53.97
2022-08-05T18:57:01.067Z,53.88
2022-08-05T18:59:43.308Z,54.47
2022-08-05T19:02:26.282Z,54.20
2022-08-05T19:05:02.885Z,54.41
2022-08-05T19:07:47.959Z,54.28
2022-08-05T19:10:28.434Z,55.31
2022-08-05T19:12:57.895Z,55.98
2022-08-05T19:15:59.645Z,55.86
2022-08-05T19:18:22.115Z,56.33
2022-08-05T19:20:52.658Z,56.58
2022-08-05T19:24:07.162Z,56.29
2022-08-05T19:26:14.174Z,56.53
2022-08-05T19:28:43.700Z,56.26
2022-08-05T19:31:17.954Z,56.35
2022-08-05T19:33:56.696Z,56.51
2022-08-05T19:36:26.198Z,56.33
2022-08-05T19:39:00.901Z,56.89
2022-08-05T19:41:58.450Z,56.86
2022-08-05T19:44:22.742Z,56.60
2022-08-05T19:46:58.008Z,56.88
2022-08-05T19:49:27.316Z,56.65
2022-08-05T19:52:08.374Z,56.64
2022-08-05T19:54:48.262Z,56.67
2022-08-05T19:57:19.189Z,56.50
2022-08-05T20:00:09.769Z,56.64
2022-08-05T20:02:38.680Z,56.58
2022-08-05T20:05:16.468Z,56.77
2022-08-05T20:07:58.875Z,56.64
2022-08-05T20:10:28.339Z,57.11
2022-08-05T20:12:59.203Z,56.71
2022-08-05T20:15:50.765Z,56.26
2022-08-05T20:18:32.548Z,56.03
2022-08-05T20:21:04.662Z,56.00
2022-08-05T20:23:40.551Z,55.59
2022-08-05T20:26:20.646Z,55.36
2022-08-05T20:28:52.797Z,55.52
2022-08-05T20:31:28.739Z,55.27
2022-08-05T20:34:12.772Z,55.89
2022-08-05T20:36:43.672Z,56.53
2022-08-05T20:39:13.576Z,57.52
2022-08-05T20:41:47.710Z,57.22
2022-08-05T20:44:29.663Z,57.99
2022-08-05T20:47:01.199Z,58.81
2022-08-05T20:49:30.112Z,59.28
2022-08-05T20:52:06.990Z,59.84
2022-08-05T20:54:55.546Z,60.64
2022-08-05T20:57:43.603Z,60.77
2022-08-05T21:00:40.962Z,60.63
2022-08-05T21:03:07.898Z,60.53
2022-08-05T21:05:54.093Z,60.72
2022-08-05T21:08:28.081Z,61.55
2022-08-05T21:11:12.089Z,61.29
2022-08-05T21:13:48.498Z,61.32
2022-08-05T21:16:29.524Z,61.62
2022-08-05T21:19:00.482Z,61.86
2022-08-05T21:21:44.454Z,62.41
2022-08-05T21:24:19.649Z,62.49
2022-08-05T21:26:53.495Z,62.44
2022-08-05T21:29:31.312Z,62.53
2022-08-05T21:32:03.866Z,62.58
2022-08-05T21:34:33.058Z,62.38
2022-08-05T21:37:04.807Z,63.00
2022-08-05T21:39:34.776Z,63.59
2022-08-05T21:42:30.530Z,63.67
2022-08-05T21:44:58.576Z,63.66
2022-08-05T21:47:55.823Z,63.71
2022-08-05T21:50:17.616Z,63.58
2022-08-05T21:52:47.408Z,63.71
2022-08-05T21:55:17.189Z,63.62
2022-08-05T21:57:46.501Z,63.63
2022-08-05T22:00:16.033Z,63.97
2022-08-05T22:02:46.870Z,63.05
2022-08-05T22:05:16.030Z,60.69
2022-08-05T22:07:58.812Z,59.29
2022-08-05T22:10:31.128Z,58.44
2022-08-05T22:13:08.755Z,58.96
2022-08-05T22:16:02.071Z,58.20
2022-08-05T22:18:39.027Z,58.00
2022-08-05T22:21:19.366Z,58.15
2022-08-05T22:24:09.058Z,57.82
2022-08-05T22:26:59.953Z,57.45
2022-08-05T22:29:30.874Z,55.88
2022-08-05T22:32:03.307Z,55.31
2022-08-05T22:34:34.031Z,55.71
2022-08-05T22:37:04.003Z,55.39
2022-08-05T22:39:34.491Z,54.96
2022-08-05T22:42:12.268Z,55.00
2022-08-05T22:44:53.602Z,53.87
2022-08-05T22:47:28.679Z,53.59
2022-08-05T22:50:20.445Z,53.33
2022-08-05T22:52:52.506Z,53.60
2022-08-05T22:55:22.547Z,52.93
2022-08-05T22:57:51.531Z,53.01
2022-08-05T23:00:22.946Z,53.35
2022-08-05T23:02:53.417Z,53.69
2022-08-05T23:05:24.589Z,53.77
2022-08-05T23:07:53.531Z,53.53
2022-08-05T23:10:23.528Z,53.25
2022-08-05T23:12:54.621Z,53.43
2022-08-05T23:15:27.036Z,54.06
2022-08-05T23:18:02.208Z,53.72
2022-08-05T23:20:37.300Z,53.25
2022-08-05T23:23:08.250Z,53.09
2022-08-05T23:25:52.144Z,53.21
2022-08-05T23:28:29.125Z,52.32
2022-08-05T23:31:06.967Z,51.40
2022-08-05T23:34:03.805Z,51.87
2022-08-05T23:36:39.876Z,51.27
2022-08-05T23:39:17.501Z,51.77
2022-08-05T23:42:01.351Z,51.90
2022-08-05T23:44:31.508Z,51.68
2022-08-05T23:47:02.627Z,51.47
2022-08-05T23:49:45.651Z,51.97
2022-08-05T23:52:29.295Z,52.07
2022-08-05T23:55:01.580Z,52.13
2022-08-05T23:57:30.450Z,51.33
